Time;durP1;ratioP1;P1;durP2;ratioP2;P2;SDS_P1;SDS_P2;PMS_P1;PMS_P2;Temp;Humidity;BMP_temperature;BMP_pressure;BME280_temperature;BME280_humidity;BME280_pressure;Samples;Min_cycle;Max_cycle;Signal;HPM_P1;HPM_P2
2021/05/14 00:00:24;;;;;;;22.43;15.60;;;;;;;;;;5033836;28;20442;-53
2021/05/14 00:02:50;;;;;;;20.90;15.47;;;;;;;;;;5033370;28;20396;-54
2021/05/14 00:05:16;;;;;;;18.40;16.20;;;;;;;;;;5033736;28;20858;-54
2021/05/14 00:07:42;;;;;;;17.60;14.70;;;;;;;;;;5033361;28;20424;-55
2021/05/14 00:10:08;;;;;;;17.83;16.00;;;;;;;;;;5033607;28;20539;-53
2021/05/14 00:12:35;;;;;;;21.83;15.63;;;;;;;;;;5033280;28;20898;-53
2021/05/14 00:15:01;;;;;;;17.73;15.80;;;;;;;;;;5033472;28;20401;-54
2021/05/14 00:17:27;;;;;;;17.70;15.20;;;;;;;;;;5033335;28;20420;-55
2021/05/14 00:19:53;;;;;;;18.20;16.20;;;;;;;;;;5033502;28;20400;-55
2021/05/14 00:22:19;;;;;;;20.87;16.23;;;;;;;;;;5033051;28;20435;-55
2021/05/14 00:24:46;;;;;;;20.90;16.47;;;;;;;;;;5033444;28;20464;-56
2021/05/14 00:27:12;;;;;;;25.90;16.97;;;;;;;;;;5033577;28;20448;-54
2021/05/14 00:29:38;;;;;;;22.67;17.83;;;;;;;;;;5033511;28;20409;-54
2021/05/14 00:32:04;;;;;;;27.77;16.07;;;;;;;;;;5033454;28;20404;-53
2021/05/14 00:34:30;;;;;;;23.73;18.57;;;;;;;;;;5033146;28;20413;-53
2021/05/14 00:36:56;;;;;;;22.17;17.00;;;;;;;;;;5032247;28;20433;-54
2021/05/14 00:39:22;;;;;;;21.60;17.60;;;;;;;;;;5032995;28;20432;-53
2021/05/14 00:41:48;;;;;;;19.53;17.30;;;;;;;;;;5032903;28;20409;-53
2021/05/14 00:44:26;;;;;;;22.70;17.50;;;;;;;;;;5032792;28;20461;-54
2021/05/14 00:46:52;;;;;;;24.37;17.53;;;;;;;;;;5032894;28;20439;-53
2021/05/14 00:49:18;;;;;;;25.00;19.47;;;;;;;;;;5032927;28;20402;-54
2021/05/14 00:51:44;;;;;;;26.33;19.30;;;;;;;;;;5032685;28;20432;-54
2021/05/14 00:54:10;;;;;;;27.07;20.30;;;;;;;;;;5032730;28;20413;-54
2021/05/14 00:56:38;;;;;;;26.20;19.70;;;;;;;;;;5032780;28;20421;-53
2021/05/14 00:59:04;;;;;;;27.87;20.27;;;;;;;;;;5032721;28;20491;-56
2021/05/14 01:01:30;;;;;;;29.13;19.90;;;;;;;;;;5030711;28;20563;-54
2021/05/14 01:03:56;;;;;;;25.40;20.10;;;;;;;;;;5031814;28;20405;-55
2021/05/14 01:06:22;;;;;;;30.10;20.77;;;;;;;;;;5031665;28;20789;-55
2021/05/14 01:08:48;;;;;;;25.77;20.13;;;;;;;;;;5031688;28;20909;-53
2021/05/14 01:11:14;;;;;;;33.97;21.73;;;;;;;;;;5032222;28;21033;-53
2021/05/14 01:13:39;;;;;;;29.43;21.10;;;;;;;;;;5032413;28;20464;-53
2021/05/14 01:16:06;;;;;;;30.57;20.10;;;;;;;;;;5032311;28;20409;-54
2021/05/14 01:18:32;;;;;;;28.67;20.83;;;;;;;;;;5032384;28;20408;-53
2021/05/14 01:20:58;;;;;;;27.13;20.60;;;;;;;;;;5032118;28;20409;-53
2021/05/14 01:23:24;;;;;;;31.73;21.70;;;;;;;;;;5032092;28;20447;-53
2021/05/14 01:25:50;;;;;;;28.47;21.37;;;;;;;;;;5032043;28;20456;-53
2021/05/14 01:28:16;;;;;;;29.70;21.10;;;;;;;;;;5032068;28;20425;-53
2021/05/14 01:30:43;;;;;;;32.10;23.10;;;;;;;;;;5032158;28;20428;-54
2021/05/14 01:33:09;;;;;;;30.77;22.57;;;;;;;;;;5031655;28;20399;-55
2021/05/14 01:35:36;;;;;;;29.50;20.60;;;;;;;;;;5032006;28;20402;-55
2021/05/14 01:38:03;;;;;;;30.23;22.60;;;;;;;;;;5031752;28;20469;-54
2021/05/14 01:40:30;;;;;;;31.30;21.47;;;;;;;;;;5031909;28;20409;-53
2021/05/14 01:42:56;;;;;;;25.77;20.93;;;;;;;;;;5031543;28;20403;-53
2021/05/14 01:45:23;;;;;;;32.87;22.10;;;;;;;;;;5031820;28;20450;-54
2021/05/14 01:47:49;;;;;;;26.50;20.10;;;;;;;;;;5031229;28;20808;-53
2021/05/14 01:50:15;;;;;;;33.37;22.70;;;;;;;;;;5031784;28;20396;-54
2021/05/14 01:52:41;;;;;;;32.63;22.53;;;;;;;;;;5031489;28;20401;-54
2021/05/14 01:55:07;;;;;;;28.30;21.40;;;;;;;;;;5031679;28;20402;-54
2021/05/14 01:57:33;;;;;;;32.70;23.27;;;;;;;;;;5031457;28;20512;-54
2021/05/14 01:59:59;;;;;;;30.33;22.10;;;;;;;;;;5031461;28;20402;-54
2021/05/14 02:02:25;;;;;;;31.20;22.30;;;;;;;;;;5031185;28;20822;-54
2021/05/14 02:04:51;;;;;;;26.77;21.07;;;;;;;;;;5029982;28;20461;-55
2021/05/14 02:07:18;;;;;;;31.33;22.40;;;;;;;;;;5031488;28;20425;-55
2021/05/14 02:09:44;;;;;;;31.93;22.57;;;;;;;;;;5031292;28;20402;-53
2021/05/14 02:12:10;;;;;;;26.80;20.27;;;;;;;;;;5031148;28;20398;-53
2021/05/14 02:14:36;;;;;;;29.13;21.63;;;;;;;;;;5031145;28;20401;-53
2021/05/14 02:17:02;;;;;;;32.57;21.00;;;;;;;;;;5031157;28;20477;-53
2021/05/14 02:19:29;;;;;;;34.93;23.20;;;;;;;;;;5031159;28;20404;-53
2021/05/14 02:21:54;;;;;;;29.47;20.97;;;;;;;;;;5031066;28;20428;-53
2021/05/14 02:24:20;;;;;;;29.70;21.60;;;;;;;;;;5031060;28;20496;-53
2021/05/14 02:26:46;;;;;;;29.70;22.03;;;;;;;;;;5030971;28;20414;-53
2021/05/14 02:29:12;;;;;;;33.60;22.03;;;;;;;;;;5031106;28;20481;-53
2021/05/14 02:31:38;;;;;;;34.80;21.17;;;;;;;;;;5030640;28;20884;-53
2021/05/14 02:34:04;;;;;;;29.67;22.63;;;;;;;;;;5030935;28;20497;-54
2021/05/14 02:36:30;;;;;;;31.23;21.97;;;;;;;;;;5030799;28;20428;-54
2021/05/14 02:38:56;;;;;;;29.80;21.07;;;;;;;;;;5030968;28;20857;-54
2021/05/14 02:41:22;;;;;;;28.23;20.83;;;;;;;;;;5030622;28;20413;-55
2021/05/14 02:43:48;;;;;;;29.00;22.13;;;;;;;;;;5030755;28;20411;-54
2021/05/14 02:46:14;;;;;;;26.10;20.20;;;;;;;;;;5030497;28;20401;-53
2021/05/14 02:48:40;;;;;;;33.07;21.93;;;;;;;;;;5029610;28;20408;-54
2021/05/14 02:51:06;;;;;;;23.73;19.60;;;;;;;;;;5030702;28;20428;-54
2021/05/14 02:53:33;;;;;;;28.07;20.37;;;;;;;;;;5030556;28;20402;-55
2021/05/14 02:55:59;;;;;;;30.10;21.57;;;;;;;;;;5030799;28;20414;-54
2021/05/14 02:58:24;;;;;;;31.83;22.17;;;;;;;;;;5030554;28;20415;-53
2021/05/14 03:00:50;;;;;;;26.60;21.20;;;;;;;;;;5030099;28;20450;-55
2021/05/14 03:03:16;;;;;;;28.43;20.97;;;;;;;;;;5030517;28;20413;-56
2021/05/14 03:05:42;;;;;;;27.27;19.83;;;;;;;;;;5030850;28;20492;-53
2021/05/14 03:08:08;;;;;;;28.33;20.30;;;;;;;;;;5030759;28;20424;-53
2021/05/14 03:10:37;;;;;;;29.60;21.87;;;;;;;;;;5030919;28;20960;-53
2021/05/14 03:13:03;;;;;;;30.50;20.30;;;;;;;;;;5030420;28;20432;-55
2021/05/14 03:15:29;;;;;;;29.17;20.73;;;;;;;;;;5030649;28;20430;-55
2021/05/14 03:17:55;;;;;;;27.93;19.77;;;;;;;;;;5030465;28;20986;-55
2021/05/14 03:20:21;;;;;;;30.50;20.90;;;;;;;;;;5030633;28;20409;-53
2021/05/14 03:22:47;;;;;;;26.83;20.13;;;;;;;;;;5030469;28;21066;-53
2021/05/14 03:25:13;;;;;;;33.17;19.40;;;;;;;;;;5030326;28;20820;-53
2021/05/14 03:27:39;;;;;;;26.33;19.50;;;;;;;;;;5030426;28;20431;-53
2021/05/14 03:30:06;;;;;;;25.80;19.77;;;;;;;;;;5030214;28;20405;-54
2021/05/14 03:32:32;;;;;;;26.93;20.07;;;;;;;;;;5030249;28;20404;-54
2021/05/14 03:34:58;;;;;;;29.17;20.20;;;;;;;;;;5030240;28;20412;-55
2021/05/14 03:37:23;;;;;;;28.27;19.97;;;;;;;;;;5030735;28;21039;-53
2021/05/14 03:39:53;;;;;;;27.43;20.70;;;;;;;;;;5030227;28;20763;-57
2021/05/14 03:42:27;;;;;;;25.90;18.90;;;;;;;;;;5029977;28;20954;-54
2021/05/14 03:44:53;;;;;;;29.10;19.57;;;;;;;;;;5030143;28;20437;-53
2021/05/14 03:47:19;;;;;;;32.40;21.03;;;;;;;;;;5030084;28;20449;-53
2021/05/14 03:49:45;;;;;;;26.67;18.93;;;;;;;;;;5030172;28;20408;-53
2021/05/14 03:52:12;;;;;;;31.10;21.70;;;;;;;;;;5030030;28;20395;-53
2021/05/14 03:54:39;;;;;;;28.20;20.63;;;;;;;;;;5030265;28;20788;-54
2021/05/14 03:57:05;;;;;;;30.30;21.33;;;;;;;;;;5029865;28;20778;-53
2021/05/14 03:59:31;;;;;;;27.27;20.40;;;;;;;;;;5030251;28;20492;-53
2021/05/14 04:01:57;;;;;;;33.63;21.70;;;;;;;;;;5029793;28;20482;-53
2021/05/14 04:04:24;;;;;;;25.63;19.97;;;;;;;;;;5030006;28;20443;-53
2021/05/14 04:06:50;;;;;;;29.33;20.83;;;;;;;;;;5029981;28;20426;-53
2021/05/14 04:09:24;;;;;;;29.50;22.10;;;;;;;;;;5030084;28;20431;-54
2021/05/14 04:14:29;;;;;;;26.23;19.73;;;;;;;;;;5033714;28;20502;-54
2021/05/14 04:16:55;;;;;;;26.63;21.23;;;;;;;;;;5033442;28;20862;-55
2021/05/14 04:19:21;;;;;;;27.00;19.70;;;;;;;;;;5033450;28;20455;-53
2021/05/14 04:21:48;;;;;;;26.17;20.17;;;;;;;;;;5033108;28;20416;-53
2021/05/14 04:24:13;;;;;;;28.13;21.50;;;;;;;;;;5033189;28;21037;-53
2021/05/14 04:26:40;;;;;;;31.07;20.77;;;;;;;;;;5033418;28;20419;-53
2021/05/14 04:29:07;;;;;;;28.23;20.80;;;;;;;;;;5033172;28;20405;-53
2021/05/14 04:31:34;;;;;;;29.83;22.20;;;;;;;;;;5033137;28;20777;-55
2021/05/14 04:34:00;;;;;;;29.20;21.70;;;;;;;;;;5032997;28;20418;-53
2021/05/14 04:36:27;;;;;;;26.13;20.87;;;;;;;;;;5033362;28;20896;-55
2021/05/14 04:38:53;;;;;;;25.63;20.23;;;;;;;;;;5032852;28;20886;-53
2021/05/14 04:41:19;;;;;;;27.77;19.57;;;;;;;;;;5032982;28;20405;-53
2021/05/14 04:43:45;;;;;;;25.90;19.50;;;;;;;;;;5033000;28;20884;-53
2021/05/14 04:46:11;;;;;;;26.13;20.17;;;;;;;;;;5032908;28;20420;-54
2021/05/14 04:48:37;;;;;;;32.60;21.10;;;;;;;;;;5032989;28;20498;-53
2021/05/14 04:51:03;;;;;;;27.93;21.33;;;;;;;;;;5032988;28;20479;-54
2021/05/14 04:53:31;;;;;;;27.13;19.90;;;;;;;;;;5032554;28;20788;-55
2021/05/14 04:55:57;;;;;;;28.90;21.50;;;;;;;;;;5033065;28;20402;-56
2021/05/14 04:58:23;;;;;;;27.60;19.67;;;;;;;;;;5033045;28;20424;-57
2021/05/14 05:00:49;;;;;;;26.70;20.57;;;;;;;;;;5032829;28;20405;-53
2021/05/14 05:03:15;;;;;;;28.80;19.87;;;;;;;;;;5032525;28;20405;-53
2021/05/14 05:05:41;;;;;;;28.17;21.13;;;;;;;;;;5032544;28;20452;-53
2021/05/14 05:08:07;;;;;;;24.30;19.80;;;;;;;;;;5032753;28;20463;-53
2021/05/14 05:10:33;;;;;;;29.40;20.40;;;;;;;;;;5032525;28;20400;-53
2021/05/14 05:12:59;;;;;;;26.80;20.00;;;;;;;;;;5032365;28;20478;-53
2021/05/14 05:15:25;;;;;;;26.10;19.47;;;;;;;;;;5032369;28;20516;-53
2021/05/14 05:17:51;;;;;;;31.63;21.07;;;;;;;;;;5032357;28;20485;-53
2021/05/14 05:20:17;;;;;;;24.43;19.50;;;;;;;;;;5031544;28;20465;-53
2021/05/14 05:22:43;;;;;;;28.60;20.60;;;;;;;;;;5031638;28;20420;-53
2021/05/14 05:25:09;;;;;;;24.10;19.20;;;;;;;;;;5032120;28;20464;-54
2021/05/14 05:27:36;;;;;;;26.30;19.80;;;;;;;;;;5032092;28;20424;-53
2021/05/14 05:30:03;;;;;;;22.80;19.17;;;;;;;;;;5030876;28;20486;-53
2021/05/14 05:32:29;;;;;;;26.00;20.67;;;;;;;;;;5031726;28;20412;-55
2021/05/14 05:34:56;;;;;;;26.60;19.43;;;;;;;;;;5032043;28;20423;-54
2021/05/14 05:37:23;;;;;;;23.53;19.10;;;;;;;;;;5031833;28;20536;-55
2021/05/14 05:39:49;;;;;;;23.70;19.10;;;;;;;;;;5031974;28;20414;-53
2021/05/14 05:42:15;;;;;;;25.57;19.43;;;;;;;;;;5031583;28;20496;-54
2021/05/14 05:44:43;;;;;;;25.73;19.67;;;;;;;;;;5031819;28;20541;-53
2021/05/14 05:47:09;;;;;;;24.00;19.73;;;;;;;;;;5031486;28;20445;-54
2021/05/14 05:49:35;;;;;;;26.30;19.80;;;;;;;;;;5031739;28;20408;-55
2021/05/14 05:52:01;;;;;;;24.00;18.57;;;;;;;;;;5031525;28;20907;-55
2021/05/14 05:54:27;;;;;;;27.57;18.67;;;;;;;;;;5031617;28;20929;-53
2021/05/14 05:56:57;;;;;;;26.00;19.00;;;;;;;;;;5031636;28;20433;-53
2021/05/14 05:59:23;;;;;;;23.47;19.50;;;;;;;;;;5031417;28;20959;-54
2021/05/14 06:01:49;;;;;;;30.10;20.40;;;;;;;;;;5031409;28;20410;-55
2021/05/14 06:04:16;;;;;;;22.73;18.50;;;;;;;;;;5031132;28;20453;-54
2021/05/14 06:06:43;;;;;;;31.50;19.13;;;;;;;;;;5031388;28;20580;-55
2021/05/14 06:09:09;;;;;;;22.87;17.83;;;;;;;;;;5031174;28;20492;-54
2021/05/14 06:11:35;;;;;;;18.03;16.20;;;;;;;;;;5031301;28;20458;-54
2021/05/14 06:14:01;;;;;;;21.87;18.30;;;;;;;;;;5030596;28;20398;-55
2021/05/14 06:16:28;;;;;;;20.53;17.10;;;;;;;;;;5030693;28;20826;-55
2021/05/14 06:19:03;;;;;;;24.13;18.33;;;;;;;;;;5030320;28;20408;-57
2021/05/14 06:21:30;;;;;;;23.27;17.07;;;;;;;;;;5030512;28;20401;-55
2021/05/14 06:23:56;;;;;;;19.77;17.53;;;;;;;;;;5030395;28;20399;-54
2021/05/14 06:26:22;;;;;;;21.03;17.23;;;;;;;;;;5030617;28;20432;-53
2021/05/14 06:28:48;;;;;;;23.30;18.23;;;;;;;;;;5030620;28;20369;-53
2021/05/14 06:31:15;;;;;;;22.60;17.57;;;;;;;;;;5028529;28;20509;-54
2021/05/14 06:33:41;;;;;;;20.07;16.20;;;;;;;;;;5030463;28;20365;-55
2021/05/14 06:36:07;;;;;;;21.07;16.23;;;;;;;;;;5029351;28;20405;-55
2021/05/14 06:38:33;;;;;;;20.07;17.23;;;;;;;;;;5030479;28;20794;-53
2021/05/14 06:41:00;;;;;;;18.00;15.83;;;;;;;;;;5030207;28;20460;-54
2021/05/14 06:43:26;;;;;;;20.37;16.30;;;;;;;;;;5030252;28;20402;-54
2021/05/14 06:45:52;;;;;;;20.70;17.17;;;;;;;;;;5030148;28;20772;-54
2021/05/14 06:48:18;;;;;;;28.80;16.97;;;;;;;;;;5030080;28;20438;-55
2021/05/14 06:50:45;;;;;;;17.50;14.50;;;;;;;;;;5030300;28;20485;-55
2021/05/14 06:53:12;;;;;;;24.50;15.50;;;;;;;;;;5030174;28;20401;-53
2021/05/14 06:55:38;;;;;;;21.90;16.73;;;;;;;;;;5030617;28;20373;-53
2021/05/14 06:58:04;;;;;;;19.37;15.80;;;;;;;;;;5029559;28;20813;-53
2021/05/14 07:00:31;;;;;;;18.67;15.83;;;;;;;;;;5030488;28;20430;-55
2021/05/14 07:02:57;;;;;;;19.27;15.70;;;;;;;;;;5029807;28;20759;-54
2021/05/14 07:05:23;;;;;;;20.30;15.83;;;;;;;;;;5030044;28;20460;-54
2021/05/14 07:07:49;;;;;;;17.50;15.30;;;;;;;;;;5030021;28;20414;-54
2021/05/14 07:10:15;;;;;;;21.00;14.47;;;;;;;;;;5029883;28;20759;-54
2021/05/14 07:12:41;;;;;;;21.10;16.50;;;;;;;;;;5029721;28;20402;-54
2021/05/14 07:15:08;;;;;;;16.40;14.70;;;;;;;;;;5029815;28;20932;-55
2021/05/14 07:17:35;;;;;;;21.03;16.47;;;;;;;;;;5030376;28;20838;-54
2021/05/14 07:20:01;;;;;;;17.07;15.20;;;;;;;;;;5030533;28;21012;-55
2021/05/14 07:22:27;;;;;;;16.53;14.87;;;;;;;;;;5030180;28;20406;-55
2021/05/14 07:24:53;;;;;;;19.40;15.43;;;;;;;;;;5029047;28;20800;-55
2021/05/14 07:27:19;;;;;;;17.10;15.30;;;;;;;;;;5029629;28;20424;-55
2021/05/14 07:29:45;;;;;;;17.97;15.10;;;;;;;;;;5029834;28;20417;-55
2021/05/14 07:32:12;;;;;;;17.63;14.80;;;;;;;;;;5030150;28;20754;-55
2021/05/14 07:34:38;;;;;;;16.83;14.40;;;;;;;;;;5030184;28;20410;-53
2021/05/14 07:37:05;;;;;;;15.10;12.60;;;;;;;;;;5030202;28;20425;-54
2021/05/14 07:39:31;;;;;;;15.43;13.73;;;;;;;;;;5030091;28;20412;-55
2021/05/14 07:41:57;;;;;;;15.93;13.33;;;;;;;;;;5030078;28;20503;-55
2021/05/14 07:44:23;;;;;;;15.00;12.53;;;;;;;;;;5030153;28;20791;-55
2021/05/14 07:46:50;;;;;;;16.07;13.00;;;;;;;;;;5031656;28;20464;-55
2021/05/14 07:49:16;;;;;;;13.77;12.43;;;;;;;;;;5033952;28;20977;-54
2021/05/14 07:51:42;;;;;;;14.97;13.20;;;;;;;;;;5033676;28;20456;-54
2021/05/14 07:54:08;;;;;;;16.70;13.03;;;;;;;;;;5033902;28;20409;-54
2021/05/14 07:56:34;;;;;;;12.27;11.17;;;;;;;;;;5033546;28;20405;-55
2021/05/14 07:59:00;;;;;;;12.73;11.43;;;;;;;;;;5032455;28;20408;-54
2021/05/14 08:01:26;;;;;;;12.20;11.00;;;;;;;;;;5032247;28;20410;-53
2021/05/14 08:03:54;;;;;;;12.73;11.53;;;;;;;;;;5033627;28;20464;-54
2021/05/14 08:06:20;;;;;;;13.30;11.90;;;;;;;;;;5033444;28;20376;-55
2021/05/14 08:08:46;;;;;;;13.27;11.70;;;;;;;;;;5033633;28;20744;-54
2021/05/14 08:11:12;;;;;;;12.00;9.87;;;;;;;;;;5033457;28;20398;-55
2021/05/14 08:13:38;;;;;;;12.77;11.57;;;;;;;;;;5033405;28;20796;-55
2021/05/14 08:16:04;;;;;;;11.80;10.57;;;;;;;;;;5033466;28;20398;-55
2021/05/14 08:18:30;;;;;;;11.90;10.70;;;;;;;;;;5033209;28;20384;-55
2021/05/14 08:20:56;;;;;;;18.40;11.47;;;;;;;;;;5033387;28;20398;-54
2021/05/14 08:23:22;;;;;;;14.00;9.53;;;;;;;;;;5032939;28;20384;-56
2021/05/14 08:25:51;;;;;;;17.43;10.03;;;;;;;;;;5033099;28;20493;-54
2021/05/14 08:28:18;;;;;;;11.23;9.43;;;;;;;;;;5033196;28;20439;-53
2021/05/14 08:30:45;;;;;;;14.43;9.37;;;;;;;;;;5033191;28;20457;-54
2021/05/14 08:33:11;;;;;;;9.23;8.43;;;;;;;;;;5032955;28;20435;-54
2021/05/14 08:35:37;;;;;;;9.77;8.80;;;;;;;;;;5033064;28;20481;-53
2021/05/14 08:38:04;;;;;;;12.93;8.03;;;;;;;;;;5033135;28;20473;-53
2021/05/14 08:40:30;;;;;;;14.13;7.73;;;;;;;;;;5032819;28;20772;-54
2021/05/14 08:42:56;;;;;;;6.83;6.23;;;;;;;;;;5032816;28;20394;-54
2021/05/14 08:45:22;;;;;;;7.33;6.70;;;;;;;;;;5032825;28;20464;-55
2021/05/14 08:47:48;;;;;;;6.70;6.00;;;;;;;;;;5032901;28;20437;-54
2021/05/14 08:50:15;;;;;;;6.57;6.07;;;;;;;;;;5032796;28;20421;-54
2021/05/14 08:52:43;;;;;;;8.23;6.70;;;;;;;;;;5032779;28;20402;-56
2021/05/14 08:55:17;;;;;;;6.97;6.30;;;;;;;;;;5033146;28;20530;-54
2021/05/14 08:57:43;;;;;;;14.20;5.70;;;;;;;;;;5032077;28;20493;-53
2021/05/14 09:00:10;;;;;;;9.20;5.33;;;;;;;;;;5032977;28;21052;-54
2021/05/14 09:02:37;;;;;;;8.47;5.90;;;;;;;;;;5031564;28;20767;-53
2021/05/14 09:05:21;;;;;;;6.03;5.50;;;;;;;;;;5032962;28;20457;-53
2021/05/14 09:07:47;;;;;;;6.87;5.13;;;;;;;;;;5032557;28;20475;-56
2021/05/14 09:10:13;;;;;;;6.60;5.83;;;;;;;;;;5048589;28;20500;-56
2021/05/14 09:12:44;;;;;;;8.83;5.97;;;;;;;;;;5051984;28;20413;-54
2021/05/14 09:15:29;;;;;;;6.13;5.53;;;;;;;;;;5052499;28;20741;-53
2021/05/14 09:18:11;;;;;;;6.43;5.50;;;;;;;;;;5052002;28;20426;-55
2021/05/14 09:20:40;;;;;;;7.27;5.20;;;;;;;;;;5067756;28;20550;-53
2021/05/14 09:23:21;;;;;;;5.47;4.70;;;;;;;;;;5051960;28;20402;-54
2021/05/14 09:25:55;;;;;;;6.50;4.37;;;;;;;;;;5067620;28;20513;-53
2021/05/14 09:28:21;;;;;;;4.37;3.10;;;;;;;;;;5051879;28;20417;-53
2021/05/14 09:30:59;;;;;;;8.43;4.40;;;;;;;;;;5052083;28;21044;-54
2021/05/14 09:33:29;;;;;;;5.27;4.17;;;;;;;;;;5051717;28;20914;-55
2021/05/14 09:35:58;;;;;;;5.23;4.10;;;;;;;;;;5051903;28;20405;-53
2021/05/14 09:38:24;;;;;;;6.30;4.73;;;;;;;;;;5051919;28;20421;-54
2021/05/14 09:40:50;;;;;;;11.10;5.40;;;;;;;;;;5051659;28;20407;-55
2021/05/14 09:43:17;;;;;;;6.53;4.60;;;;;;;;;;5051631;28;20397;-55
2021/05/14 09:45:43;;;;;;;5.83;4.30;;;;;;;;;;5051610;28;20452;-53
2021/05/14 09:48:22;;;;;;;6.60;4.30;;;;;;;;;;5051525;28;20444;-53
2021/05/14 09:50:48;;;;;;;4.10;3.80;;;;;;;;;;5051558;28;20428;-55
2021/05/14 09:53:15;;;;;;;5.33;4.23;;;;;;;;;;5051288;28;20433;-54
2021/05/14 09:55:51;;;;;;;4.53;4.13;;;;;;;;;;5051493;28;20429;-54
2021/05/14 09:58:21;;;;;;;5.53;4.37;;;;;;;;;;5051645;28;20507;-53
2021/05/14 10:00:47;;;;;;;6.57;4.47;;;;;;;;;;5051439;28;20813;-54
2021/05/14 10:03:17;;;;;;;7.27;4.77;;;;;;;;;;5051085;28;20429;-53
2021/05/14 10:05:45;;;;;;;5.40;4.57;;;;;;;;;;5051241;28;20994;-53
2021/05/14 10:08:15;;;;;;;4.73;3.77;;;;;;;;;;5051355;28;20429;-55
2021/05/14 10:10:42;;;;;;;9.17;4.23;;;;;;;;;;5051182;28;20397;-55
2021/05/14 10:13:09;;;;;;;9.20;4.03;;;;;;;;;;5050910;28;20559;-55
2021/05/14 10:15:35;;;;;;;4.70;3.60;;;;;;;;;;5051169;28;20464;-55
2021/05/14 10:18:03;;;;;;;3.60;3.30;;;;;;;;;;5051024;28;20813;-55
2021/05/14 10:20:30;;;;;;;10.20;3.90;;;;;;;;;;5050942;28;20409;-55
2021/05/14 10:22:58;;;;;;;4.60;3.60;;;;;;;;;;5050619;28;20433;-55
2021/05/14 10:25:44;;;;;;;4.13;3.53;;;;;;;;;;5050994;28;20544;-55
2021/05/14 10:28:12;;;;;;;5.73;3.30;;;;;;;;;;5050951;28;20456;-55
2021/05/14 10:30:58;;;;;;;4.97;3.10;;;;;;;;;;5050939;28;20397;-55
2021/05/14 10:33:43;;;;;;;11.47;4.10;;;;;;;;;;5050691;28;20406;-55
2021/05/14 10:36:11;;;;;;;7.83;3.40;;;;;;;;;;5050965;28;20433;-55
2021/05/14 10:38:37;;;;;;;5.43;3.80;;;;;;;;;;5051015;28;20397;-55
2021/05/14 10:41:23;;;;;;;4.27;2.80;;;;;;;;;;5050792;28;20413;-55
2021/05/14 10:43:57;;;;;;;4.57;3.20;;;;;;;;;;5050872;28;20409;-55
2021/05/14 10:46:28;;;;;;;3.83;3.50;;;;;;;;;;5050424;28;20844;-55
2021/05/14 10:49:07;;;;;;;8.37;3.13;;;;;;;;;;5051066;28;20401;-55
2021/05/14 10:51:42;;;;;;;3.73;2.77;;;;;;;;;;5050556;28;20397;-55
2021/05/14 10:54:08;;;;;;;4.50;4.10;;;;;;;;;;5050957;28;20401;-55
2021/05/14 10:56:48;;;;;;;4.20;3.73;;;;;;;;;;5050570;28;20424;-56
2021/05/14 10:59:14;;;;;;;5.57;3.63;;;;;;;;;;5050692;28;20408;-56
2021/05/14 11:01:43;;;;;;;4.13;3.43;;;;;;;;;;5050225;28;20397;-56
2021/05/14 11:04:12;;;;;;;4.30;3.90;;;;;;;;;;5050421;28;20405;-56
2021/05/14 11:06:41;;;;;;;5.33;3.17;;;;;;;;;;5050283;28;20429;-56
2021/05/14 11:09:10;;;;;;;6.13;3.47;;;;;;;;;;5050598;28;20404;-55
2021/05/14 11:11:53;;;;;;;5.30;4.80;;;;;;;;;;5050114;28;20889;-56
2021/05/14 11:14:19;;;;;;;5.03;4.07;;;;;;;;;;5050241;28;20401;-55
2021/05/14 11:16:46;;;;;;;6.33;4.00;;;;;;;;;;5050172;28;20421;-55
2021/05/14 11:19:23;;;;;;;5.77;4.10;;;;;;;;;;5050445;28;20401;-55
2021/05/14 11:22:00;;;;;;;5.40;4.07;;;;;;;;;;5052642;28;20457;-53
2021/05/14 11:24:35;;;;;;;8.10;4.63;;;;;;;;;;5054099;28;20440;-54
2021/05/14 11:27:21;;;;;;;5.60;3.80;;;;;;;;;;5054236;28;20771;-53
2021/05/14 11:29:57;;;;;;;5.03;3.53;;;;;;;;;;5054117;28;20409;-53
2021/05/14 11:32:26;;;;;;;6.00;4.00;;;;;;;;;;5054242;28;20444;-53
2021/05/14 11:35:12;;;;;;;4.67;4.17;;;;;;;;;;5054122;28;20408;-54
2021/05/14 11:37:42;;;;;;;4.27;3.87;;;;;;;;;;5054083;28;20512;-55
2021/05/14 11:40:15;;;;;;;4.37;3.70;;;;;;;;;;5054075;28;20463;-53
2021/05/14 11:42:43;;;;;;;4.73;3.17;;;;;;;;;;5053890;28;20772;-54
2021/05/14 11:45:11;;;;;;;3.37;3.13;;;;;;;;;;5053860;28;20440;-55
2021/05/14 11:47:39;;;;;;;3.67;3.13;;;;;;;;;;5053877;28;20441;-54
2021/05/14 11:50:07;;;;;;;7.03;3.67;;;;;;;;;;5053718;28;20397;-54
2021/05/14 11:52:37;;;;;;;3.10;2.80;;;;;;;;;;5053762;28;20409;-53
2021/05/14 11:55:11;;;;;;;3.87;2.60;;;;;;;;;;5053829;28;20397;-54
2021/05/14 11:57:37;;;;;;;3.13;2.93;;;;;;;;;;5054061;28;20792;-55
2021/05/14 12:00:04;;;;;;;5.20;3.40;;;;;;;;;;5053568;28;20877;-53
2021/05/14 12:02:34;;;;;;;3.90;3.60;;;;;;;;;;5053501;28;20532;-53
2021/05/14 12:05:00;;;;;;;3.60;3.30;;;;;;;;;;5053727;28;20819;-56
2021/05/14 12:07:26;;;;;;;2.83;2.63;;;;;;;;;;5053564;28;20413;-55
2021/05/14 12:09:59;;;;;;;5.13;4.07;;;;;;;;;;5053739;28;20393;-53
2021/05/14 12:12:25;;;;;;;5.07;3.03;;;;;;;;;;5053177;28;20472;-53
2021/05/14 12:14:51;;;;;;;4.90;2.80;;;;;;;;;;5053562;28;20409;-54
2021/05/14 12:17:17;;;;;;;3.43;2.60;;;;;;;;;;5053330;28;20432;-55
2021/05/14 12:19:47;;;;;;;3.73;2.57;;;;;;;;;;5053513;28;20397;-55
2021/05/14 12:22:14;;;;;;;2.67;2.47;;;;;;;;;;5052938;28;21000;-58
2021/05/14 12:24:40;;;;;;;3.00;2.27;;;;;;;;;;5053332;28;20811;-53
2021/05/14 12:27:10;;;;;;;2.83;1.90;;;;;;;;;;5053137;28;20901;-53
2021/05/14 12:29:36;;;;;;;4.50;2.53;;;;;;;;;;5053149;28;20479;-55
2021/05/14 12:32:04;;;;;;;5.70;3.37;;;;;;;;;;5052778;28;20861;-53
2021/05/14 12:34:30;;;;;;;2.67;2.47;;;;;;;;;;5052163;28;20402;-55
2021/05/14 12:36:57;;;;;;;3.40;3.10;;;;;;;;;;5053225;28;20832;-56
2021/05/14 12:39:25;;;;;;;3.00;2.80;;;;;;;;;;5053132;28;20500;-53
2021/05/14 12:42:01;;;;;;;2.43;2.23;;;;;;;;;;5052980;28;20614;-53
2021/05/14 12:44:55;;;;;;;3.03;2.43;;;;;;;;;;5054057;28;20506;-54
2021/05/14 12:47:23;;;;;;;3.80;2.60;;;;;;;;;;5051839;28;20441;-54
2021/05/14 12:49:53;;;;;;;4.60;3.60;;;;;;;;;;5052779;28;20405;-54
2021/05/14 12:52:31;;;;;;;3.00;2.80;;;;;;;;;;5051984;28;20892;-54
2021/05/14 12:55:00;;;;;;;4.07;3.10;;;;;;;;;;5052673;28;20439;-55
2021/05/14 12:57:42;;;;;;;6.70;3.00;;;;;;;;;;5052729;28;20425;-53
2021/05/14 13:00:15;;;;;;;3.40;3.10;;;;;;;;;;5052726;28;20405;-53
2021/05/14 13:02:52;;;;;;;6.50;3.50;;;;;;;;;;5052459;28;20420;-54
2021/05/14 13:05:19;;;;;;;4.63;3.07;;;;;;;;;;5067962;28;20553;-53
2021/05/14 13:08:23;;;;;;;3.57;2.83;;;;;;;;;;5052500;28;20418;-53
2021/05/14 13:10:52;;;;;;;15.87;5.93;;;;;;;;;;5029851;28;20453;-55
2021/05/14 13:13:22;;;;;;;3.37;3.07;;;;;;;;;;5029551;28;20414;-53
2021/05/14 13:15:50;;;;;;;2.80;2.70;;;;;;;;;;5041450;28;20433;-56
2021/05/14 13:18:42;;;;;;;3.40;3.20;;;;;;;;;;5053288;28;20472;-54
2021/05/14 13:21:09;;;;;;;2.93;2.63;;;;;;;;;;5052044;28;20409;-55
2021/05/14 13:23:36;;;;;;;5.80;4.40;;;;;;;;;;5051964;28;20401;-53
2021/05/14 13:26:02;;;;;;;4.00;3.70;;;;;;;;;;5051933;28;20461;-53
2021/05/14 13:28:28;;;;;;;4.33;3.47;;;;;;;;;;5052105;28;20401;-56
2021/05/14 13:30:54;;;;;;;6.60;3.00;;;;;;;;;;5052038;28;20408;-53
2021/05/14 13:33:20;;;;;;;3.43;2.73;;;;;;;;;;5051821;28;20398;-54
2021/05/14 13:35:46;;;;;;;5.23;3.03;;;;;;;;;;5052156;28;20405;-53
2021/05/14 13:38:12;;;;;;;3.40;3.20;;;;;;;;;;5051692;28;20897;-53
2021/05/14 13:40:38;;;;;;;5.50;3.10;;;;;;;;;;5051943;28;20416;-53
2021/05/14 13:43:04;;;;;;;4.67;3.17;;;;;;;;;;5051518;28;20405;-53
2021/05/14 13:45:30;;;;;;;2.40;2.30;;;;;;;;;;5051495;28;20523;-53
2021/05/14 13:48:01;;;;;;;3.37;3.13;;;;;;;;;;5051519;28;21013;-53
2021/05/14 13:50:27;;;;;;;3.63;3.20;;;;;;;;;;5051654;28;20429;-54
2021/05/14 13:52:53;;;;;;;4.20;3.10;;;;;;;;;;5051157;28;20398;-54
2021/05/14 13:55:19;;;;;;;6.03;3.70;;;;;;;;;;5051633;28;20398;-54
2021/05/14 13:57:45;;;;;;;3.43;3.13;;;;;;;;;;5051309;28;21164;-53
2021/05/14 14:00:11;;;;;;;5.87;2.57;;;;;;;;;;5051476;28;20368;-53
2021/05/14 14:02:38;;;;;;;3.10;2.80;;;;;;;;;;5051463;28;20766;-53
2021/05/14 14:05:05;;;;;;;3.33;2.90;;;;;;;;;;5051151;28;20926;-53
2021/05/14 14:07:30;;;;;;;4.07;2.80;;;;;;;;;;5051144;28;20511;-53
2021/05/14 14:09:56;;;;;;;4.47;2.90;;;;;;;;;;5066533;28;20430;-53
2021/05/14 14:12:23;;;;;;;4.13;2.57;;;;;;;;;;5050955;28;20398;-53
2021/05/14 14:14:50;;;;;;;4.30;2.57;;;;;;;;;;5051094;28;20401;-53
2021/05/14 14:17:16;;;;;;;2.43;2.23;;;;;;;;;;5051294;28;20429;-54
2021/05/14 14:19:42;;;;;;;2.53;2.30;;;;;;;;;;5051096;28;20420;-54
2021/05/14 14:22:08;;;;;;;2.87;2.10;;;;;;;;;;5050981;28;20420;-55
2021/05/14 14:24:34;;;;;;;3.30;2.00;;;;;;;;;;5051260;28;20423;-56
2021/05/14 14:27:01;;;;;;;6.43;2.30;;;;;;;;;;5051200;28;20500;-57
2021/05/14 14:29:29;;;;;;;4.47;2.30;;;;;;;;;;5051246;28;20912;-53
2021/05/14 14:31:56;;;;;;;2.87;2.53;;;;;;;;;;5050873;28;20423;-56
2021/05/14 14:34:22;;;;;;;2.43;2.10;;;;;;;;;;5066394;28;20448;-53